sensor_id;sensor_type;location;lat;lon;timestamp;pressure;altitude;pressure_sealevel;temperature;humidity
15914;BME280;8055;51.930;8.840;2022-08-03T00:00:59;99590.09;;;18.61;100.00
15914;BME280;8055;51.930;8.840;2022-08-03T00:03:25;99591.41;;;18.58;100.00
15914;BME280;8055;51.930;8.840;2022-08-03T00:05:50;99593.19;;;18.53;100.00
15914;BME280;8055;51.930;8.840;2022-08-03T00:08:16;99583.63;;;18.55;100.00
15914;BME280;8055;51.930;8.840;2022-08-03T00:10:41;99582.88;;;18.48;100.00
15914;BME280;8055;51.930;8.840;2022-08-03T00:13:07;99584.63;;;18.42;100.00
15914;BME280;8055;51.930;8.840;2022-08-03T00:15:32;99588.63;;;18.46;100.00
15914;BME280;8055;51.930;8.840;2022-08-03T00:17:58;99585.03;;;18.46;100.00
15914;BME280;8055;51.930;8.840;2022-08-03T00:20:24;99584.78;;;18.47;100.00
15914;BME280;8055;51.930;8.840;2022-08-03T00:22:49;99592.09;;;18.54;100.00
15914;BME280;8055;51.930;8.840;2022-08-03T00:25:15;99585.78;;;18.53;100.00
15914;BME280;8055;51.930;8.840;2022-08-03T00:27:41;99572.31;;;18.45;100.00
15914;BME280;8055;51.930;8.840;2022-08-03T00:30:07;99573.88;;;18.41;100.00
15914;BME280;8055;51.930;8.840;2022-08-03T00:32:33;99571.50;;;18.44;100.00
15914;BME280;8055;51.930;8.840;2022-08-03T00:34:58;99577.00;;;18.44;100.00
15914;BME280;8055;51.930;8.840;2022-08-03T00:37:24;99574.16;;;18.51;100.00
15914;BME280;8055;51.930;8.840;2022-08-03T00:39:49;99575.38;;;18.55;100.00
15914;BME280;8055;51.930;8.840;2022-08-03T00:42:14;99566.66;;;18.58;100.00
15914;BME280;8055;51.930;8.840;2022-08-03T00:44:41;99570.84;;;18.61;100.00
15914;BME280;8055;51.930;8.840;2022-08-03T00:47:07;99572.91;;;18.65;100.00
15914;BME280;8055;51.930;8.840;2022-08-03T00:49:35;99572.44;;;18.68;100.00
15914;BME280;8055;51.930;8.840;2022-08-03T00:52:01;99576.50;;;18.66;100.00
15914;BME280;8055;51.930;8.840;2022-08-03T00:54:28;99563.38;;;18.68;100.00
15914;BME280;8055;51.930;8.840;2022-08-03T00:56:53;99568.72;;;18.63;100.00
15914;BME280;8055;51.930;8.840;2022-08-03T00:59:20;99562.28;;;18.69;100.00
15914;BME280;8055;51.930;8.840;2022-08-03T01:01:45;99563.94;;;18.70;100.00
15914;BME280;8055;51.930;8.840;2022-08-03T01:04:11;99567.78;;;18.69;100.00
15914;BME280;8055;51.930;8.840;2022-08-03T01:06:51;99571.00;;;18.66;100.00
15914;BME280;8055;51.930;8.840;2022-08-03T01:09:26;99563.81;;;18.65;100.00
15914;BME280;8055;51.930;8.840;2022-08-03T01:14:26;99561.28;;;18.63;100.00
15914;BME280;8055;51.930;8.840;2022-08-03T01:16:59;99559.72;;;18.56;100.00
15914;BME280;8055;51.930;8.840;2022-08-03T01:19:48;99558.47;;;18.52;100.00
15914;BME280;8055;51.930;8.840;2022-08-03T01:24:52;99555.72;;;18.52;100.00
15914;BME280;8055;51.930;8.840;2022-08-03T01:27:36;99551.41;;;18.44;100.00
15914;BME280;8055;51.930;8.840;2022-08-03T01:30:08;99552.34;;;18.38;100.00
15914;BME280;8055;51.930;8.840;2022-08-03T01:32:40;99551.13;;;18.34;100.00
15914;BME280;8055;51.930;8.840;2022-08-03T01:35:23;99547.81;;;18.43;100.00
15914;BME280;8055;51.930;8.840;2022-08-03T01:38:12;99551.25;;;18.39;100.00
15914;BME280;8055;51.930;8.840;2022-08-03T01:40:40;99556.09;;;18.25;100.00
15914;BME280;8055;51.930;8.840;2022-08-03T01:43:09;99550.75;;;18.30;100.00
15914;BME280;8055;51.930;8.840;2022-08-03T01:45:36;99550.13;;;18.28;100.00
15914;BME280;8055;51.930;8.840;2022-08-03T01:48:02;99561.59;;;18.25;100.00
15914;BME280;8055;51.930;8.840;2022-08-03T01:50:30;99549.41;;;18.21;100.00
15914;BME280;8055;51.930;8.840;2022-08-03T01:52:57;99560.06;;;18.29;100.00
15914;BME280;8055;51.930;8.840;2022-08-03T01:55:24;99556.94;;;18.25;100.00
15914;BME280;8055;51.930;8.840;2022-08-03T01:57:53;99555.84;;;18.26;100.00
15914;BME280;8055;51.930;8.840;2022-08-03T02:00:20;99554.19;;;18.25;100.00
15914;BME280;8055;51.930;8.840;2022-08-03T02:02:47;99547.94;;;18.18;100.00
15914;BME280;8055;51.930;8.840;2022-08-03T02:05:15;99547.31;;;18.16;100.00
15914;BME280;8055;51.930;8.840;2022-08-03T02:07:41;99548.25;;;18.10;100.00
15914;BME280;8055;51.930;8.840;2022-08-03T02:10:10;99546.56;;;18.09;100.00
15914;BME280;8055;51.930;8.840;2022-08-03T02:12:37;99541.91;;;18.10;100.00
15914;BME280;8055;51.930;8.840;2022-08-03T02:15:04;99546.31;;;18.11;100.00
15914;BME280;8055;51.930;8.840;2022-08-03T02:17:32;99547.78;;;18.13;100.00
15914;BME280;8055;51.930;8.840;2022-08-03T02:19:59;99540.25;;;18.09;100.00
15914;BME280;8055;51.930;8.840;2022-08-03T02:22:26;99543.56;;;18.11;100.00
15914;BME280;8055;51.930;8.840;2022-08-03T02:24:54;99542.38;;;18.07;100.00
15914;BME280;8055;51.930;8.840;2022-08-03T02:27:23;99543.75;;;17.97;100.00
15914;BME280;8055;51.930;8.840;2022-08-03T02:30:02;99538.94;;;17.93;100.00
15914;BME280;8055;51.930;8.840;2022-08-03T02:32:30;99552.53;;;17.88;100.00
15914;BME280;8055;51.930;8.840;2022-08-03T02:34:58;99539.88;;;17.87;100.00
15914;BME280;8055;51.930;8.840;2022-08-03T02:37:28;99536.41;;;17.91;100.00
15914;BME280;8055;51.930;8.840;2022-08-03T02:40:01;99532.84;;;17.91;100.00
15914;BME280;8055;51.930;8.840;2022-08-03T02:42:28;99529.47;;;17.89;100.00
15914;BME280;8055;51.930;8.840;2022-08-03T02:44:57;99538.31;;;17.91;100.00
15914;BME280;8055;51.930;8.840;2022-08-03T02:47:26;99539.16;;;17.91;100.00
15914;BME280;8055;51.930;8.840;2022-08-03T02:49:54;99534.03;;;17.95;100.00
15914;BME280;8055;51.930;8.840;2022-08-03T02:52:23;99536.34;;;17.98;100.00
15914;BME280;8055;51.930;8.840;2022-08-03T02:54:52;99533.13;;;18.01;100.00
15914;BME280;8055;51.930;8.840;2022-08-03T02:57:20;99527.88;;;17.99;100.00
15914;BME280;8055;51.930;8.840;2022-08-03T02:59:48;99539.91;;;17.98;100.00
15914;BME280;8055;51.930;8.840;2022-08-03T03:02:15;99533.66;;;17.91;100.00
15914;BME280;8055;51.930;8.840;2022-08-03T03:04:43;99535.59;;;17.91;100.00
15914;BME280;8055;51.930;8.840;2022-08-03T03:07:11;99531.75;;;17.92;100.00
15914;BME280;8055;51.930;8.840;2022-08-03T03:09:38;99523.31;;;17.93;100.00
15914;BME280;8055;51.930;8.840;2022-08-03T03:12:05;99526.03;;;17.93;100.00
15914;BME280;8055;51.930;8.840;2022-08-03T03:14:33;99532.84;;;17.91;100.00
15914;BME280;8055;51.930;8.840;2022-08-03T03:16:59;99537.31;;;17.85;100.00
15914;BME280;8055;51.930;8.840;2022-08-03T03:19:25;99533.50;;;17.86;100.00
15914;BME280;8055;51.930;8.840;2022-08-03T03:21:52;99536.31;;;17.79;100.00
15914;BME280;8055;51.930;8.840;2022-08-03T03:24:18;99542.44;;;17.82;100.00
15914;BME280;8055;51.930;8.840;2022-08-03T03:26:44;99531.25;;;17.76;100.00
15914;BME280;8055;51.930;8.840;2022-08-03T03:29:10;99527.94;;;17.74;100.00
15914;BME280;8055;51.930;8.840;2022-08-03T03:31:36;99533.31;;;17.63;100.00
15914;BME280;8055;51.930;8.840;2022-08-03T03:34:01;99538.72;;;17.51;100.00
15914;BME280;8055;51.930;8.840;2022-08-03T03:36:27;99537.66;;;17.52;100.00
15914;BME280;8055;51.930;8.840;2022-08-03T03:38:52;99538.06;;;17.55;100.00
15914;BME280;8055;51.930;8.840;2022-08-03T03:41:18;99535.91;;;17.57;100.00
15914;BME280;8055;51.930;8.840;2022-08-03T03:43:43;99529.63;;;17.50;100.00
15914;BME280;8055;51.930;8.840;2022-08-03T03:46:11;99537.66;;;17.52;100.00
15914;BME280;8055;51.930;8.840;2022-08-03T03:48:38;99541.63;;;17.56;100.00
15914;BME280;8055;51.930;8.840;2022-08-03T03:51:03;99538.25;;;17.54;100.00
15914;BME280;8055;51.930;8.840;2022-08-03T03:53:29;99533.91;;;17.46;100.00
15914;BME280;8055;51.930;8.840;2022-08-03T03:55:54;99542.22;;;17.40;100.00
15914;BME280;8055;51.930;8.840;2022-08-03T03:58:20;99534.50;;;17.30;100.00
15914;BME280;8055;51.930;8.840;2022-08-03T04:00:45;99529.16;;;17.35;100.00
15914;BME280;8055;51.930;8.840;2022-08-03T04:03:11;99527.03;;;17.37;100.00
15914;BME280;8055;51.930;8.840;2022-08-03T04:05:37;99529.47;;;17.27;100.00
15914;BME280;8055;51.930;8.840;2022-08-03T04:08:21;99527.47;;;17.34;100.00
15914;BME280;8055;51.930;8.840;2022-08-03T04:13:52;99533.34;;;17.38;100.00
15914;BME280;8055;51.930;8.840;2022-08-03T04:16:23;99535.41;;;17.42;100.00
15914;BME280;8055;51.930;8.840;2022-08-03T04:18:55;99539.56;;;17.51;100.00
15914;BME280;8055;51.930;8.840;2022-08-03T04:21:23;99540.56;;;17.57;100.00
15914;BME280;8055;51.930;8.840;2022-08-03T04:23:52;99537.59;;;17.58;100.00
15914;BME280;8055;51.930;8.840;2022-08-03T04:26:21;99537.34;;;17.60;100.00
15914;BME280;8055;51.930;8.840;2022-08-03T04:28:48;99540.09;;;17.60;100.00
15914;BME280;8055;51.930;8.840;2022-08-03T04:31:17;99545.84;;;17.58;100.00
15914;BME280;8055;51.930;8.840;2022-08-03T04:33:45;99546.69;;;17.59;100.00
15914;BME280;8055;51.930;8.840;2022-08-03T04:36:14;99555.91;;;17.65;100.00
15914;BME280;8055;51.930;8.840;2022-08-03T04:38:53;99553.16;;;17.65;100.00
15914;BME280;8055;51.930;8.840;2022-08-03T04:41:22;99552.94;;;17.66;100.00
15914;BME280;8055;51.930;8.840;2022-08-03T04:43:50;99562.19;;;17.72;100.00
15914;BME280;8055;51.930;8.840;2022-08-03T04:46:18;99563.38;;;17.76;100.00
15914;BME280;8055;51.930;8.840;2022-08-03T04:48:46;99559.81;;;17.75;100.00
15914;BME280;8055;51.930;8.840;2022-08-03T04:51:13;99557.31;;;17.74;100.00
15914;BME280;8055;51.930;8.840;2022-08-03T04:53:39;99558.13;;;17.74;100.00
15914;BME280;8055;51.930;8.840;2022-08-03T04:56:05;99559.19;;;17.80;100.00
15914;BME280;8055;51.930;8.840;2022-08-03T04:58:31;99558.22;;;17.86;100.00
15914;BME280;8055;51.930;8.840;2022-08-03T05:00:57;99555.03;;;17.89;100.00
15914;BME280;8055;51.930;8.840;2022-08-03T05:03:23;99560.06;;;17.92;100.00
15914;BME280;8055;51.930;8.840;2022-08-03T05:05:48;99560.22;;;17.97;100.00
15914;BME280;8055;51.930;8.840;2022-08-03T05:08:14;99560.41;;;18.02;100.00
15914;BME280;8055;51.930;8.840;2022-08-03T05:10:39;99549.53;;;18.08;100.00
15914;BME280;8055;51.930;8.840;2022-08-03T05:13:05;99554.72;;;18.16;100.00
15914;BME280;8055;51.930;8.840;2022-08-03T05:15:30;99554.03;;;18.20;100.00
15914;BME280;8055;51.930;8.840;2022-08-03T05:17:55;99554.56;;;18.29;100.00
15914;BME280;8055;51.930;8.840;2022-08-03T05:20:21;99556.75;;;18.39;100.00
15914;BME280;8055;51.930;8.840;2022-08-03T05:22:46;99557.53;;;18.46;100.00
15914;BME280;8055;51.930;8.840;2022-08-03T05:25:12;99556.34;;;18.54;100.00
15914;BME280;8055;51.930;8.840;2022-08-03T05:27:37;99553.19;;;18.68;100.00
15914;BME280;8055;51.930;8.840;2022-08-03T05:30:03;99545.22;;;18.79;100.00
15914;BME280;8055;51.930;8.840;2022-08-03T05:32:29;99556.59;;;18.82;100.00
15914;BME280;8055;51.930;8.840;2022-08-03T05:34:54;99548.59;;;18.92;100.00
15914;BME280;8055;51.930;8.840;2022-08-03T05:37:20;99550.88;;;18.95;100.00
15914;BME280;8055;51.930;8.840;2022-08-03T05:39:45;99547.19;;;19.02;100.00
15914;BME280;8055;51.930;8.840;2022-08-03T05:42:14;99543.50;;;19.08;100.00
15914;BME280;8055;51.930;8.840;2022-08-03T05:44:39;99548.06;;;19.14;100.00
15914;BME280;8055;51.930;8.840;2022-08-03T05:47:06;99545.44;;;19.19;100.00
15914;BME280;8055;51.930;8.840;2022-08-03T05:49:31;99541.47;;;19.27;100.00
15914;BME280;8055;51.930;8.840;2022-08-03T05:51:57;99547.16;;;19.44;100.00
15914;BME280;8055;51.930;8.840;2022-08-03T05:54:22;99539.94;;;19.54;100.00
15914;BME280;8055;51.930;8.840;2022-08-03T05:56:47;99548.25;;;19.66;100.00
15914;BME280;8055;51.930;8.840;2022-08-03T05:59:13;99543.78;;;19.77;100.00
15914;BME280;8055;51.930;8.840;2022-08-03T06:01:38;99550.47;;;19.93;100.00
15914;BME280;8055;51.930;8.840;2022-08-03T06:04:04;99544.25;;;20.09;100.00
15914;BME280;8055;51.930;8.840;2022-08-03T06:06:29;99552.81;;;20.24;100.00
15914;BME280;8055;51.930;8.840;2022-08-03T06:08:54;99554.81;;;20.41;100.00
15914;BME280;8055;51.930;8.840;2022-08-03T06:11:20;99553.47;;;20.55;100.00
15914;BME280;8055;51.930;8.840;2022-08-03T06:13:45;99544.97;;;20.73;100.00
15914;BME280;8055;51.930;8.840;2022-08-03T06:16:11;99546.38;;;20.88;100.00
15914;BME280;8055;51.930;8.840;2022-08-03T06:18:36;99539.00;;;20.93;100.00
15914;BME280;8055;51.930;8.840;2022-08-03T06:21:03;99546.72;;;21.08;100.00
15914;BME280;8055;51.930;8.840;2022-08-03T06:23:29;99555.75;;;21.20;100.00
15914;BME280;8055;51.930;8.840;2022-08-03T06:25:54;99552.09;;;21.32;100.00
15914;BME280;8055;51.930;8.840;2022-08-03T06:28:20;99556.38;;;21.39;100.00
15914;BME280;8055;51.930;8.840;2022-08-03T06:30:45;99560.16;;;21.50;100.00
15914;BME280;8055;51.930;8.840;2022-08-03T06:33:11;99557.59;;;21.65;100.00
15914;BME280;8055;51.930;8.840;2022-08-03T06:35:36;99554.16;;;21.75;100.00
15914;BME280;8055;51.930;8.840;2022-08-03T06:38:02;99555.66;;;21.83;100.00
15914;BME280;8055;51.930;8.840;2022-08-03T06:40:27;99558.63;;;21.98;100.00
15914;BME280;8055;51.930;8.840;2022-08-03T06:42:59;99557.84;;;22.03;100.00
15914;BME280;8055;51.930;8.840;2022-08-03T06:45:26;99561.84;;;22.12;100.00
15914;BME280;8055;51.930;8.840;2022-08-03T06:48:07;99553.75;;;22.22;100.00
15914;BME280;8055;51.930;8.840;2022-08-03T06:50:34;99556.03;;;22.30;100.00
15914;BME280;8055;51.930;8.840;2022-08-03T06:53:00;99565.34;;;22.46;100.00
15914;BME280;8055;51.930;8.840;2022-08-03T06:55:26;99563.03;;;22.60;100.00
15914;BME280;8055;51.930;8.840;2022-08-03T06:57:52;99561.22;;;22.71;100.00
15914;BME280;8055;51.930;8.840;2022-08-03T07:00:18;99561.38;;;22.86;100.00
15914;BME280;8055;51.930;8.840;2022-08-03T07:02:44;99565.38;;;22.95;100.00
15914;BME280;8055;51.930;8.840;2022-08-03T07:05:10;99562.47;;;23.12;100.00
15914;BME280;8055;51.930;8.840;2022-08-03T07:07:35;99570.09;;;23.27;100.00
15914;BME280;8055;51.930;8.840;2022-08-03T07:10:02;99565.53;;;23.43;100.00
15914;BME280;8055;51.930;8.840;2022-08-03T07:12:29;99570.91;;;23.60;100.00
15914;BME280;8055;51.930;8.840;2022-08-03T07:14:55;99567.72;;;23.73;100.00
15914;BME280;8055;51.930;8.840;2022-08-03T07:17:21;99572.19;;;23.79;100.00
15914;BME280;8055;51.930;8.840;2022-08-03T07:19:47;99566.22;;;23.97;100.00
15914;BME280;8055;51.930;8.840;2022-08-03T07:22:12;99571.78;;;24.02;100.00
15914;BME280;8055;51.930;8.840;2022-08-03T07:24:38;99573.75;;;24.07;100.00
15914;BME280;8055;51.930;8.840;2022-08-03T07:27:03;99570.75;;;24.19;100.00
15914;BME280;8055;51.930;8.840;2022-08-03T07:29:29;99573.00;;;24.27;100.00
15914;BME280;8055;51.930;8.840;2022-08-03T07:31:54;99573.34;;;24.36;100.00
15914;BME280;8055;51.930;8.840;2022-08-03T07:34:19;99567.56;;;24.42;100.00
15914;BME280;8055;51.930;8.840;2022-08-03T07:36:45;99569.25;;;24.49;100.00
15914;BME280;8055;51.930;8.840;2022-08-03T07:39:10;99562.91;;;24.63;100.00
15914;BME280;8055;51.930;8.840;2022-08-03T07:41:35;99573.22;;;24.78;100.00
15914;BME280;8055;51.930;8.840;2022-08-03T07:44:01;99569.34;;;24.79;100.00
15914;BME280;8055;51.930;8.840;2022-08-03T07:46:27;99572.72;;;24.91;100.00
15914;BME280;8055;51.930;8.840;2022-08-03T07:48:52;99569.94;;;25.02;100.00
15914;BME280;8055;51.930;8.840;2022-08-03T07:51:18;99571.09;;;25.16;100.00
15914;BME280;8055;51.930;8.840;2022-08-03T07:53:43;99571.38;;;25.35;100.00
15914;BME280;8055;51.930;8.840;2022-08-03T07:56:09;99568.59;;;25.50;100.00
15914;BME280;8055;51.930;8.840;2022-08-03T07:58:35;99578.63;;;25.67;100.00
15914;BME280;8055;51.930;8.840;2022-08-03T08:01:01;99569.16;;;25.68;100.00
15914;BME280;8055;51.930;8.840;2022-08-03T08:03:26;99568.84;;;25.69;99.98
15914;BME280;8055;51.930;8.840;2022-08-03T08:05:52;99572.75;;;25.83;100.00
15914;BME280;8055;51.930;8.840;2022-08-03T08:08:18;99568.28;;;25.88;99.03
15914;BME280;8055;51.930;8.840;2022-08-03T08:10:45;99566.59;;;26.02;100.00
15914;BME280;8055;51.930;8.840;2022-08-03T08:13:10;99566.84;;;26.16;99.35
15914;BME280;8055;51.930;8.840;2022-08-03T08:15:36;99567.91;;;26.30;98.75
15914;BME280;8055;51.930;8.840;2022-08-03T08:18:01;99564.56;;;26.33;96.47
15914;BME280;8055;51.930;8.840;2022-08-03T08:20:34;99570.34;;;26.42;95.66
15914;BME280;8055;51.930;8.840;2022-08-03T08:23:04;99572.03;;;26.43;94.01
15914;BME280;8055;51.930;8.840;2022-08-03T08:25:30;99570.91;;;26.49;94.48
15914;BME280;8055;51.930;8.840;2022-08-03T08:27:56;99580.09;;;26.55;94.39
15914;BME280;8055;51.930;8.840;2022-08-03T08:30:22;99567.22;;;26.64;94.66
15914;BME280;8055;51.930;8.840;2022-08-03T08:32:49;99559.34;;;26.76;89.51
15914;BME280;8055;51.930;8.840;2022-08-03T08:35:15;99562.69;;;26.78;91.36
15914;BME280;8055;51.930;8.840;2022-08-03T08:37:41;99568.19;;;26.88;90.28
15914;BME280;8055;51.930;8.840;2022-08-03T08:40:08;99567.00;;;26.99;88.92
15914;BME280;8055;51.930;8.840;2022-08-03T08:42:33;99567.75;;;27.10;87.27
15914;BME280;8055;51.930;8.840;2022-08-03T08:44:59;99569.63;;;27.25;81.27
15914;BME280;8055;51.930;8.840;2022-08-03T08:47:28;99569.06;;;27.28;79.96
15914;BME280;8055;51.930;8.840;2022-08-03T08:49:56;99566.25;;;27.33;79.56
15914;BME280;8055;51.930;8.840;2022-08-03T08:52:26;99572.88;;;27.37;77.50
15914;BME280;8055;51.930;8.840;2022-08-03T08:54:57;99564.22;;;27.39;78.60
15914;BME280;8055;51.930;8.840;2022-08-03T08:57:35;99571.97;;;27.47;78.69
15914;BME280;8055;51.930;8.840;2022-08-03T09:00:07;99569.72;;;27.49;76.93
15914;BME280;8055;51.930;8.840;2022-08-03T09:02:34;99563.91;;;27.45;74.50
15914;BME280;8055;51.930;8.840;2022-08-03T09:05:00;99572.19;;;27.56;75.64
15914;BME280;8055;51.930;8.840;2022-08-03T09:07:27;99554.75;;;27.69;75.47
15914;BME280;8055;51.930;8.840;2022-08-03T09:09:53;99564.97;;;27.84;75.82
15914;BME280;8055;51.930;8.840;2022-08-03T09:12:19;99567.63;;;27.94;76.24
15914;BME280;8055;51.930;8.840;2022-08-03T09:14:44;99561.09;;;28.04;76.15
15914;BME280;8055;51.930;8.840;2022-08-03T09:17:10;99564.69;;;28.09;71.22
15914;BME280;8055;51.930;8.840;2022-08-03T09:19:36;99564.31;;;28.16;73.87
15914;BME280;8055;51.930;8.840;2022-08-03T09:22:13;99570.69;;;28.22;72.01
15914;BME280;8055;51.930;8.840;2022-08-03T09:25:17;99563.81;;;28.33;73.88
15914;BME280;8055;51.930;8.840;2022-08-03T09:27:44;99561.25;;;28.42;68.30
15914;BME280;8055;51.930;8.840;2022-08-03T09:30:17;99563.63;;;28.53;72.50
15914;BME280;8055;51.930;8.840;2022-08-03T09:32:43;99561.38;;;28.55;68.55
15914;BME280;8055;51.930;8.840;2022-08-03T09:35:14;99558.69;;;28.64;69.51
15914;BME280;8055;51.930;8.840;2022-08-03T09:37:39;99557.88;;;28.64;50.52
15914;BME280;8055;51.930;8.840;2022-08-03T09:40:05;99555.25;;;28.72;50.28
15914;BME280;8055;51.930;8.840;2022-08-03T09:42:31;99557.66;;;28.79;49.43
15914;BME280;8055;51.930;8.840;2022-08-03T09:44:59;99552.47;;;28.91;51.98
15914;BME280;8055;51.930;8.840;2022-08-03T09:47:30;99563.59;;;29.15;50.83
15914;BME280;8055;51.930;8.840;2022-08-03T09:52:29;99560.19;;;29.18;50.19
15914;BME280;8055;51.930;8.840;2022-08-03T09:54:55;99557.84;;;29.07;48.00
15914;BME280;8055;51.930;8.840;2022-08-03T09:57:25;99550.38;;;29.21;47.01
15914;BME280;8055;51.930;8.840;2022-08-03T09:59:51;99559.38;;;29.18;48.12
15914;BME280;8055;51.930;8.840;2022-08-03T10:02:22;99561.84;;;29.19;46.99
15914;BME280;8055;51.930;8.840;2022-08-03T10:04:48;99567.75;;;29.18;47.10
15914;BME280;8055;51.930;8.840;2022-08-03T10:07:17;99554.50;;;29.23;48.52
15914;BME280;8055;51.930;8.840;2022-08-03T10:09:56;99553.75;;;29.37;49.05
15914;BME280;8055;51.930;8.840;2022-08-03T10:12:23;99554.78;;;29.41;47.74
15914;BME280;8055;51.930;8.840;2022-08-03T10:14:49;99550.97;;;29.50;48.35
15914;BME280;8055;51.930;8.840;2022-08-03T10:17:14;99550.91;;;29.56;48.56
15914;BME280;8055;51.930;8.840;2022-08-03T10:19:40;99538.31;;;29.72;49.64
15914;BME280;8055;51.930;8.840;2022-08-03T10:22:20;99540.81;;;29.87;48.40
15914;BME280;8055;51.930;8.840;2022-08-03T10:24:55;99530.84;;;29.95;47.99
15914;BME280;8055;51.930;8.840;2022-08-03T10:27:23;99536.50;;;30.09;47.99
15914;BME280;8055;51.930;8.840;2022-08-03T10:30:02;99535.69;;;30.22;47.20
15914;BME280;8055;51.930;8.840;2022-08-03T10:32:40;99532.94;;;30.17;42.35
15914;BME280;8055;51.930;8.840;2022-08-03T10:35:15;99534.91;;;30.16;44.71
15914;BME280;8055;51.930;8.840;2022-08-03T10:38:05;99525.19;;;30.28;43.86
15914;BME280;8055;51.930;8.840;2022-08-03T10:40:32;99523.22;;;30.28;42.85
15914;BME280;8055;51.930;8.840;2022-08-03T10:43:08;99526.19;;;30.46;43.80
15914;BME280;8055;51.930;8.840;2022-08-03T10:45:40;99527.13;;;30.55;43.27
15914;BME280;8055;51.930;8.840;2022-08-03T10:48:06;99528.28;;;30.54;43.69
15914;BME280;8055;51.930;8.840;2022-08-03T10:50:32;99526.00;;;30.56;44.39
15914;BME280;8055;51.930;8.840;2022-08-03T10:53:00;99523.38;;;30.59;42.46
15914;BME280;8055;51.930;8.840;2022-08-03T10:55:45;99523.34;;;30.73;42.56
15914;BME280;8055;51.930;8.840;2022-08-03T11:01:09;99521.88;;;30.76;41.54
15914;BME280;8055;51.930;8.840;2022-08-03T11:06:20;99518.19;;;31.03;41.34
15914;BME280;8055;51.930;8.840;2022-08-03T11:08:48;99518.06;;;31.30;42.67
15914;BME280;8055;51.930;8.840;2022-08-03T11:14:18;99518.28;;;31.56;40.34
15914;BME280;8055;51.930;8.840;2022-08-03T11:17:04;99502.59;;;31.64;40.21
15914;BME280;8055;51.930;8.840;2022-08-03T11:19:50;99504.13;;;31.70;40.69
15914;BME280;8055;51.930;8.840;2022-08-03T11:22:17;99509.66;;;31.84;40.05
15914;BME280;8055;51.930;8.840;2022-08-03T11:30:22;99507.94;;;31.97;38.25
15914;BME280;8055;51.930;8.840;2022-08-03T11:32:51;99505.94;;;31.66;38.88
15914;BME280;8055;51.930;8.840;2022-08-03T11:40:40;99498.09;;;32.25;37.97
15914;BME280;8055;51.930;8.840;2022-08-03T11:43:07;99501.50;;;32.05;38.61
15914;BME280;8055;51.930;8.840;2022-08-03T11:45:34;99497.13;;;32.39;38.47
15914;BME280;8055;51.930;8.840;2022-08-03T11:48:12;99498.88;;;32.66;38.69
15914;BME280;8055;51.930;8.840;2022-08-03T11:50:39;99502.19;;;32.85;38.21
15914;BME280;8055;51.930;8.840;2022-08-03T11:53:06;99495.53;;;32.64;35.57
15914;BME280;8055;51.930;8.840;2022-08-03T11:55:31;99507.59;;;32.56;35.49
15914;BME280;8055;51.930;8.840;2022-08-03T11:57:59;99502.97;;;32.51;37.24
15914;BME280;8055;51.930;8.840;2022-08-03T12:00:30;99504.31;;;32.54;36.90
15914;BME280;8055;51.930;8.840;2022-08-03T12:03:07;99503.47;;;32.53;35.93
15914;BME280;8055;51.930;8.840;2022-08-03T12:08:02;99498.88;;;32.66;36.71
15914;BME280;8055;51.930;8.840;2022-08-03T12:10:27;99508.28;;;32.96;37.02
15914;BME280;8055;51.930;8.840;2022-08-03T12:12:57;99506.53;;;33.00;34.97
15914;BME280;8055;51.930;8.840;2022-08-03T12:15:28;99503.66;;;32.91;35.53
15914;BME280;8055;51.930;8.840;2022-08-03T12:17:54;99496.06;;;32.92;34.95
15914;BME280;8055;51.930;8.840;2022-08-03T12:20:22;99501.53;;;33.06;35.34
15914;BME280;8055;51.930;8.840;2022-08-03T12:22:48;99496.38;;;33.51;35.87
15914;BME280;8055;51.930;8.840;2022-08-03T12:25:25;99489.91;;;33.98;34.71
15914;BME280;8055;51.930;8.840;2022-08-03T12:27:52;99494.72;;;33.97;34.11
15914;BME280;8055;51.930;8.840;2022-08-03T12:30:18;99478.59;;;34.06;32.83
15914;BME280;8055;51.930;8.840;2022-08-03T12:32:44;99476.72;;;34.40;34.16
15914;BME280;8055;51.930;8.840;2022-08-03T12:35:21;99482.72;;;34.68;32.18
15914;BME280;8055;51.930;8.840;2022-08-03T12:37:48;99483.97;;;34.80;32.97
15914;BME280;8055;51.930;8.840;2022-08-03T12:40:14;99473.47;;;34.59;31.71
15914;BME280;8055;51.930;8.840;2022-08-03T12:42:40;99471.53;;;34.51;33.18
15914;BME280;8055;51.930;8.840;2022-08-03T12:45:23;99489.47;;;34.76;31.76
15914;BME280;8055;51.930;8.840;2022-08-03T12:48:00;99481.13;;;34.80;31.97
15914;BME280;8055;51.930;8.840;2022-08-03T12:50:26;99485.59;;;34.81;33.00
15914;BME280;8055;51.930;8.840;2022-08-03T12:52:52;99492.06;;;34.81;31.70
15914;BME280;8055;51.930;8.840;2022-08-03T12:55:20;99486.25;;;35.07;31.40
15914;BME280;8055;51.930;8.840;2022-08-03T12:57:45;99487.25;;;35.23;31.18
15914;BME280;8055;51.930;8.840;2022-08-03T13:00:12;99483.09;;;35.21;30.91
15914;BME280;8055;51.930;8.840;2022-08-03T13:02:38;99475.63;;;35.04;31.43
15914;BME280;8055;51.930;8.840;2022-08-03T13:05:11;99475.03;;;35.44;32.25
15914;BME280;8055;51.930;8.840;2022-08-03T13:07:44;99474.84;;;35.16;32.24
15914;BME280;8055;51.930;8.840;2022-08-03T13:10:11;99473.91;;;34.70;31.36
15914;BME280;8055;51.930;8.840;2022-08-03T13:12:47;99464.66;;;34.82;32.24
15914;BME280;8055;51.930;8.840;2022-08-03T13:15:13;99479.53;;;34.91;33.20
15914;BME280;8055;51.930;8.840;2022-08-03T13:17:39;99469.22;;;34.95;31.94
15914;BME280;8055;51.930;8.840;2022-08-03T13:20:05;99470.03;;;34.74;31.69
15914;BME280;8055;51.930;8.840;2022-08-03T13:22:31;99476.78;;;34.61;30.88
15914;BME280;8055;51.930;8.840;2022-08-03T13:25:01;99465.91;;;34.51;31.17
15914;BME280;8055;51.930;8.840;2022-08-03T13:27:28;99465.03;;;34.50;31.22
15914;BME280;8055;51.930;8.840;2022-08-03T13:29:54;99457.34;;;34.39;32.60
15914;BME280;8055;51.930;8.840;2022-08-03T13:32:20;99463.44;;;34.70;31.10
15914;BME280;8055;51.930;8.840;2022-08-03T13:34:46;99462.72;;;34.52;31.53
15914;BME280;8055;51.930;8.840;2022-08-03T13:37:11;99465.25;;;34.54;31.08
15914;BME280;8055;51.930;8.840;2022-08-03T13:39:37;99473.16;;;34.61;31.18
15914;BME280;8055;51.930;8.840;2022-08-03T13:42:03;99461.56;;;34.53;31.25